Time;durP1;ratioP1;P1;durP2;ratioP2;P2;SDS_P1;SDS_P2;PMS_P1;PMS_P2;Temp;Humidity;BMP_temperature;BMP_pressure;BME280_temperature;BME280_humidity;BME280_pressure;Samples;Min_cycle;Max_cycle;Signal;HPM_P1;HPM_P2
2023/03/13 00:01:44;;;;;;;30.43;9.03;;;;;;;;;;4955483;28;20293;-84
2023/03/13 00:04:11;;;;;;;27.27;8.70;;;;;;;;;;4955192;28;20226;-83
2023/03/13 00:06:38;;;;;;;26.93;8.70;;;;;;;;;;4948227;28;20302;-83
2023/03/13 00:09:09;;;;;;;19.40;8.17;;;;;;;;;;4919477;28;20806;-84
2023/03/13 00:11:37;;;;;;;22.73;8.17;;;;;;;;;;4968011;28;20983;-83
2023/03/13 00:14:03;;;;;;;27.57;8.60;;;;;;;;;;4979259;28;20232;-82
2023/03/13 00:16:29;;;;;;;24.40;8.07;;;;;;;;;;4971343;28;21079;-84
2023/03/13 00:18:57;;;;;;;26.23;8.83;;;;;;;;;;4970316;28;20560;-84
2023/03/13 00:21:26;;;;;;;22.87;8.73;;;;;;;;;;4955389;28;20474;-82
2023/03/13 00:23:52;;;;;;;25.27;8.50;;;;;;;;;;4981084;28;20222;-82
2023/03/13 00:26:22;;;;;;;23.10;7.63;;;;;;;;;;4981038;28;20222;-81
2023/03/13 00:28:48;;;;;;;21.20;8.20;;;;;;;;;;4951698;28;20234;-82
2023/03/13 00:31:15;;;;;;;22.83;8.17;;;;;;;;;;4967418;28;20631;-81
2023/03/13 00:33:44;;;;;;;22.93;7.57;;;;;;;;;;4977148;28;20225;-81
2023/03/13 00:36:17;;;;;;;24.20;7.70;;;;;;;;;;4981264;28;20305;-82
2023/03/13 00:38:43;;;;;;;22.47;6.63;;;;;;;;;;4980180;28;20238;-80
2023/03/13 00:41:13;;;;;;;25.67;8.07;;;;;;;;;;4963315;28;20242;-80
2023/03/13 00:43:43;;;;;;;23.80;7.73;;;;;;;;;;4940805;28;20241;-82
2023/03/13 00:46:12;;;;;;;22.40;6.97;;;;;;;;;;4984291;28;20231;-84
2023/03/13 00:48:40;;;;;;;20.47;7.00;;;;;;;;;;4971807;28;20254;-80
2023/03/13 00:51:06;;;;;;;24.83;7.83;;;;;;;;;;4983689;28;20730;-85
2023/03/13 00:53:34;;;;;;;24.03;7.57;;;;;;;;;;4982279;28;20704;-85
2023/03/13 00:56:07;;;;;;;18.27;7.00;;;;;;;;;;4956851;28;20214;-84
2023/03/13 00:58:34;;;;;;;20.60;6.80;;;;;;;;;;4940648;28;20278;-85
2023/03/13 01:01:13;;;;;;;17.83;6.73;;;;;;;;;;4960974;28;20231;-83
2023/03/13 01:03:39;;;;;;;17.33;6.77;;;;;;;;;;4954277;28;20227;-82
2023/03/13 01:06:06;;;;;;;18.80;6.47;;;;;;;;;;4950741;28;20246;-84
2023/03/13 01:08:34;;;;;;;25.13;7.20;;;;;;;;;;4974976;28;20214;-84
2023/03/13 01:11:01;;;;;;;20.93;7.37;;;;;;;;;;4972784;28;20229;-86
2023/03/13 01:13:28;;;;;;;27.50;7.13;;;;;;;;;;4940822;28;20222;-84
2023/03/13 01:15:53;;;;;;;22.63;6.33;;;;;;;;;;4920297;28;20229;-84
2023/03/13 01:18:19;;;;;;;23.67;6.37;;;;;;;;;;4955325;28;20225;-84
2023/03/13 01:20:44;;;;;;;25.27;6.93;;;;;;;;;;4966799;28;20244;-84
2023/03/13 01:23:10;;;;;;;20.70;6.20;;;;;;;;;;4950279;28;20238;-83
2023/03/13 01:25:36;;;;;;;18.37;6.20;;;;;;;;;;4952263;28;20230;-85
2023/03/13 01:28:14;;;;;;;22.30;6.50;;;;;;;;;;4951578;28;20209;-84
2023/03/13 01:30:42;;;;;;;28.50;6.43;;;;;;;;;;4948773;28;20233;-85
2023/03/13 01:33:11;;;;;;;24.23;6.43;;;;;;;;;;4941099;28;20234;-81
2023/03/13 01:35:36;;;;;;;18.87;6.53;;;;;;;;;;4961360;28;20226;-82
2023/03/13 01:38:02;;;;;;;22.43;6.63;;;;;;;;;;4960799;28;20233;-85
2023/03/13 01:40:28;;;;;;;22.57;6.57;;;;;;;;;;4963615;28;20290;-84
2023/03/13 01:42:58;;;;;;;30.33;6.83;;;;;;;;;;4937609;28;20615;-83
2023/03/13 01:45:50;;;;;;;21.37;6.23;;;;;;;;;;4953968;28;20214;-84
2023/03/13 01:48:21;;;;;;;17.43;5.47;;;;;;;;;;4936550;28;20766;-86
2023/03/13 01:50:48;;;;;;;21.40;5.63;;;;;;;;;;4940687;28;20226;-82
2023/03/13 01:53:21;;;;;;;19.63;5.53;;;;;;;;;;4968936;28;20226;-82
2023/03/13 01:55:49;;;;;;;19.03;5.23;;;;;;;;;;4976095;28;20233;-82
2023/03/13 01:58:15;;;;;;;15.40;5.23;;;;;;;;;;4970337;28;20658;-81
2023/03/13 02:00:41;;;;;;;17.27;5.10;;;;;;;;;;4969729;28;20237;-82
2023/03/13 02:03:11;;;;;;;16.77;5.67;;;;;;;;;;4951314;28;20236;-85
2023/03/13 02:05:36;;;;;;;24.10;6.10;;;;;;;;;;4973090;28;20308;-81
2023/03/13 02:08:13;;;;;;;21.83;5.20;;;;;;;;;;4965673;28;20229;-81
2023/03/13 02:10:44;;;;;;;21.97;5.67;;;;;;;;;;4954777;28;20229;-83
2023/03/13 02:13:13;;;;;;;20.53;4.80;;;;;;;;;;4952275;28;20225;-80
2023/03/13 02:15:42;;;;;;;21.80;5.30;;;;;;;;;;4964307;28;20238;-83
2023/03/13 02:18:07;;;;;;;20.27;5.17;;;;;;;;;;4936239;28;20779;-84
2023/03/13 02:20:35;;;;;;;24.60;5.67;;;;;;;;;;4968663;28;20226;-82
2023/03/13 02:23:13;;;;;;;17.27;4.83;;;;;;;;;;4963046;28;20245;-82
2023/03/13 02:25:52;;;;;;;19.70;4.67;;;;;;;;;;4948991;28;20230;-84
2023/03/13 02:28:34;;;;;;;19.73;4.53;;;;;;;;;;4974556;28;20222;-89
2023/03/13 02:31:03;;;;;;;23.23;4.93;;;;;;;;;;4964812;28;20222;-81
2023/03/13 02:33:30;;;;;;;17.83;5.37;;;;;;;;;;4947579;28;20214;-85
2023/03/13 02:35:58;;;;;;;20.40;4.97;;;;;;;;;;4964933;28;20220;-84
2023/03/13 02:38:27;;;;;;;21.30;4.87;;;;;;;;;;4916604;28;20298;-83
2023/03/13 02:40:55;;;;;;;15.93;4.50;;;;;;;;;;4953955;28;20317;-81
2023/03/13 02:43:24;;;;;;;21.03;5.30;;;;;;;;;;4935213;28;20216;-81
2023/03/13 02:46:12;;;;;;;14.13;4.70;;;;;;;;;;4967126;28;20234;-86
2023/03/13 02:48:53;;;;;;;17.47;4.20;;;;;;;;;;4972055;28;20229;-87
2023/03/13 02:51:28;;;;;;;18.83;4.60;;;;;;;;;;4949907;28;20279;-83
2023/03/13 02:53:58;;;;;;;18.33;4.67;;;;;;;;;;4962283;28;20222;-82
2023/03/13 02:56:27;;;;;;;19.13;4.40;;;;;;;;;;4953158;28;20219;-81
2023/03/13 02:58:53;;;;;;;16.47;4.63;;;;;;;;;;4948917;28;20211;-84
2023/03/13 03:01:22;;;;;;;15.90;5.03;;;;;;;;;;4962429;28;20234;-81
2023/03/13 03:03:50;;;;;;;20.90;4.47;;;;;;;;;;4968904;28;20262;-86
2023/03/13 03:06:16;;;;;;;15.60;5.07;;;;;;;;;;4964407;28;20255;-82
2023/03/13 03:08:45;;;;;;;15.10;3.93;;;;;;;;;;4949390;28;20254;-82
2023/03/13 03:11:14;;;;;;;15.20;4.20;;;;;;;;;;4948604;28;20589;-84
2023/03/13 03:13:42;;;;;;;16.07;4.30;;;;;;;;;;4964541;28;20197;-83
2023/03/13 03:16:12;;;;;;;16.13;4.57;;;;;;;;;;4952718;28;20238;-79
2023/03/13 03:18:37;;;;;;;25.33;4.70;;;;;;;;;;4958674;28;20252;-84
2023/03/13 03:21:05;;;;;;;18.07;4.60;;;;;;;;;;4948947;28;20235;-83
2023/03/13 03:23:35;;;;;;;13.10;3.80;;;;;;;;;;4953140;28;20219;-82
2023/03/13 03:26:05;;;;;;;15.47;4.23;;;;;;;;;;4955490;28;20254;-83
2023/03/13 03:28:32;;;;;;;15.93;3.83;;;;;;;;;;4938016;28;20250;-84
2023/03/13 03:31:06;;;;;;;21.60;4.33;;;;;;;;;;4967156;28;20238;-81
2023/03/13 03:33:32;;;;;;;22.13;4.43;;;;;;;;;;4958414;28;20324;-83
2023/03/13 03:36:03;;;;;;;15.83;4.20;;;;;;;;;;4983981;28;20736;-84
2023/03/13 03:38:31;;;;;;;13.10;4.00;;;;;;;;;;4945388;28;20226;-84
2023/03/13 03:41:02;;;;;;;14.97;4.33;;;;;;;;;;4954372;28;20231;-83
2023/03/13 03:43:31;;;;;;;15.93;3.70;;;;;;;;;;4942327;28;20233;-83
2023/03/13 03:45:57;;;;;;;14.00;4.10;;;;;;;;;;4962433;28;20245;-82
2023/03/13 03:48:26;;;;;;;11.87;3.97;;;;;;;;;;4954171;28;20682;-83
2023/03/13 03:50:52;;;;;;;14.63;3.43;;;;;;;;;;4990003;28;20221;-82
2023/03/13 03:53:19;;;;;;;14.17;4.07;;;;;;;;;;4975134;28;20763;-84
2023/03/13 03:55:44;;;;;;;15.47;3.90;;;;;;;;;;4985612;28;20270;-84
2023/03/13 03:58:12;;;;;;;16.27;4.53;;;;;;;;;;4953368;28;20229;-84
2023/03/13 04:00:56;;;;;;;13.87;3.83;;;;;;;;;;4969220;28;20260;-83
2023/03/13 04:03:25;;;;;;;16.10;3.87;;;;;;;;;;4942864;28;20253;-80
2023/03/13 04:05:51;;;;;;;21.23;4.33;;;;;;;;;;4948774;28;20223;-83
2023/03/13 04:08:17;;;;;;;13.87;4.10;;;;;;;;;;4967371;28;20237;-83
2023/03/13 04:10:43;;;;;;;18.33;4.20;;;;;;;;;;4961874;28;20264;-83
2023/03/13 04:13:09;;;;;;;16.40;4.10;;;;;;;;;;4993911;28;20267;-85
2023/03/13 04:15:34;;;;;;;13.57;3.77;;;;;;;;;;4958684;28;20245;-82
2023/03/13 04:18:00;;;;;;;13.63;3.53;;;;;;;;;;4972534;28;20321;-84
2023/03/13 04:20:31;;;;;;;11.63;4.17;;;;;;;;;;4973066;28;20243;-82
2023/03/13 04:22:56;;;;;;;11.20;3.70;;;;;;;;;;4945935;28;20252;-83
2023/03/13 04:25:24;;;;;;;13.30;4.17;;;;;;;;;;4957315;28;20277;-83
2023/03/13 04:27:53;;;;;;;17.00;4.40;;;;;;;;;;4944862;28;20222;-82
2023/03/13 04:30:24;;;;;;;17.53;4.67;;;;;;;;;;4944043;28;20238;-83
2023/03/13 04:33:10;;;;;;;16.30;4.13;;;;;;;;;;4974735;28;20226;-83
2023/03/13 04:35:48;;;;;;;12.37;4.10;;;;;;;;;;4972521;28;20281;-81
2023/03/13 04:38:19;;;;;;;13.53;4.00;;;;;;;;;;4964131;28;20657;-81
2023/03/13 04:40:58;;;;;;;15.83;4.47;;;;;;;;;;4950994;28;20229;-81
2023/03/13 04:43:44;;;;;;;13.13;3.67;;;;;;;;;;4995160;28;20222;-81
2023/03/13 04:46:28;;;;;;;17.33;5.63;;;;;;;;;;4956749;28;20221;-82
2023/03/13 04:49:14;;;;;;;11.23;3.97;;;;;;;;;;4955789;28;20273;-82
2023/03/13 04:51:43;;;;;;;16.30;3.87;;;;;;;;;;4955525;28;20344;-83
2023/03/13 04:54:32;;;;;;;15.00;3.90;;;;;;;;;;4964706;28;20226;-80
2023/03/13 04:57:09;;;;;;;19.13;4.20;;;;;;;;;;4952597;28;20599;-81
2023/03/13 04:59:49;;;;;;;15.17;4.03;;;;;;;;;;4967923;28;20589;-84
2023/03/13 05:02:43;;;;;;;15.07;4.20;;;;;;;;;;4973734;28;20281;-80
2023/03/13 05:05:29;;;;;;;14.07;4.03;;;;;;;;;;4964851;28;20246;-84
2023/03/13 05:08:18;;;;;;;15.03;4.40;;;;;;;;;;4943959;28;20409;-81
2023/03/13 05:11:04;;;;;;;15.80;4.27;;;;;;;;;;4968674;28;20722;-81
2023/03/13 05:14:10;;;;;;;13.43;3.80;;;;;;;;;;4958434;28;20314;-81
2023/03/13 05:16:58;;;;;;;14.20;4.13;;;;;;;;;;4940137;28;21183;-82
2023/03/13 05:19:44;;;;;;;14.73;3.67;;;;;;;;;;4968436;28;20233;-82
2023/03/13 05:22:22;;;;;;;11.33;3.97;;;;;;;;;;4952896;28;20330;-81
2023/03/13 05:25:08;;;;;;;9.83;4.07;;;;;;;;;;4956678;28;20218;-81
2023/03/13 05:27:50;;;;;;;17.83;4.10;;;;;;;;;;4956386;28;20253;-81
2023/03/13 05:30:34;;;;;;;16.57;4.80;;;;;;;;;;4974139;28;20288;-83
2023/03/13 05:33:12;;;;;;;11.17;3.93;;;;;;;;;;4973231;28;20682;-82
2023/03/13 05:35:46;;;;;;;17.00;5.03;;;;;;;;;;4942591;28;20320;-80
2023/03/13 05:38:26;;;;;;;8.50;3.57;;;;;;;;;;4941143;28;20309;-83
2023/03/13 05:41:07;;;;;;;16.87;4.20;;;;;;;;;;4959102;28;20301;-82
2023/03/13 05:43:55;;;;;;;12.17;4.33;;;;;;;;;;4975757;28;20214;-82
2023/03/13 05:46:21;;;;;;;16.30;4.23;;;;;;;;;;4938592;28;20228;-83
2023/03/13 05:48:57;;;;;;;9.27;4.00;;;;;;;;;;4942296;28;20230;-84
2023/03/13 05:51:45;;;;;;;12.27;3.83;;;;;;;;;;4970998;28;20364;-84
2023/03/13 05:54:31;;;;;;;9.00;3.87;;;;;;;;;;4948078;28;20227;-82
2023/03/13 05:57:19;;;;;;;9.70;3.53;;;;;;;;;;4951202;28;20764;-82
2023/03/13 06:00:03;;;;;;;7.83;3.60;;;;;;;;;;4971334;28;20229;-84
2023/03/13 06:02:50;;;;;;;8.87;3.27;;;;;;;;;;4966069;28;20228;-83
2023/03/13 06:05:24;;;;;;;6.97;2.87;;;;;;;;;;4940315;28;20815;-84
2023/03/13 06:07:53;;;;;;;9.57;2.97;;;;;;;;;;4942114;28;20218;-81
2023/03/13 06:10:21;;;;;;;7.13;3.60;;;;;;;;;;4934680;28;20222;-81
2023/03/13 06:12:54;;;;;;;7.57;2.80;;;;;;;;;;4951720;28;20218;-83
2023/03/13 06:15:20;;;;;;;6.73;3.07;;;;;;;;;;4965448;28;20222;-82
2023/03/13 06:17:54;;;;;;;6.63;2.80;;;;;;;;;;4938602;28;20221;-83
2023/03/13 06:20:21;;;;;;;8.10;2.73;;;;;;;;;;4952514;28;20226;-83
2023/03/13 06:22:46;;;;;;;6.70;2.63;;;;;;;;;;4955167;28;20257;-85
2023/03/13 06:25:12;;;;;;;8.53;2.93;;;;;;;;;;4957901;28;20225;-82
2023/03/13 06:27:37;;;;;;;6.07;2.80;;;;;;;;;;4941114;28;20222;-81
2023/03/13 06:30:05;;;;;;;6.67;3.17;;;;;;;;;;4952658;28;20226;-82
2023/03/13 06:32:31;;;;;;;6.23;3.13;;;;;;;;;;4953288;28;20256;-83
2023/03/13 06:34:56;;;;;;;8.40;2.77;;;;;;;;;;4948133;28;20599;-81
2023/03/13 06:37:22;;;;;;;6.50;2.93;;;;;;;;;;4942409;28;21831;-83
2023/03/13 06:39:47;;;;;;;6.90;2.90;;;;;;;;;;4937746;28;20245;-84
2023/03/13 06:42:13;;;;;;;5.73;3.30;;;;;;;;;;4936423;28;20284;-83
2023/03/13 06:44:41;;;;;;;7.10;2.83;;;;;;;;;;4969723;28;20225;-83
2023/03/13 06:47:06;;;;;;;8.80;3.30;;;;;;;;;;4951568;28;20276;-80
2023/03/13 06:49:32;;;;;;;10.77;6.13;;;;;;;;;;4940325;28;20222;-83
2023/03/13 06:51:59;;;;;;;7.83;3.30;;;;;;;;;;4939460;28;20268;-83
2023/03/13 06:54:27;;;;;;;8.20;3.17;;;;;;;;;;4962278;28;20254;-80
2023/03/13 06:56:53;;;;;;;9.17;3.20;;;;;;;;;;4951892;28;20215;-81
2023/03/13 06:59:23;;;;;;;12.10;3.43;;;;;;;;;;4946244;28;20692;-80
2023/03/13 07:01:48;;;;;;;6.17;3.17;;;;;;;;;;4956136;28;20257;-82
2023/03/13 07:04:16;;;;;;;6.37;3.37;;;;;;;;;;4954295;28;20222;-84
2023/03/13 07:06:44;;;;;;;8.07;3.30;;;;;;;;;;4984161;28;20227;-78
2023/03/13 07:09:10;;;;;;;6.77;3.30;;;;;;;;;;4949427;28;20230;-83
2023/03/13 07:11:39;;;;;;;6.93;3.47;;;;;;;;;;4949759;28;20249;-82
2023/03/13 07:14:04;;;;;;;10.37;4.30;;;;;;;;;;4950992;28;20842;-81
2023/03/13 07:16:32;;;;;;;11.97;4.30;;;;;;;;;;4948720;28;20207;-82
2023/03/13 07:18:58;;;;;;;7.57;3.63;;;;;;;;;;4973218;28;20230;-81
2023/03/13 07:21:23;;;;;;;14.17;3.87;;;;;;;;;;4951046;28;20264;-84
2023/03/13 07:23:49;;;;;;;9.20;3.83;;;;;;;;;;4954186;28;20232;-81
2023/03/13 07:26:14;;;;;;;9.40;4.10;;;;;;;;;;4967449;28;20330;-80
2023/03/13 07:28:40;;;;;;;4.97;3.57;;;;;;;;;;4964705;28;20243;-82
2023/03/13 07:31:19;;;;;;;9.23;4.60;;;;;;;;;;4971430;28;20277;-86
2023/03/13 07:33:44;;;;;;;7.00;4.10;;;;;;;;;;4950468;28;20218;-85
2023/03/13 07:36:10;;;;;;;6.43;4.57;;;;;;;;;;4968750;28;20265;-80
2023/03/13 07:38:36;;;;;;;4.70;3.87;;;;;;;;;;4969957;28;20267;-83
2023/03/13 07:41:01;;;;;;;7.80;4.50;;;;;;;;;;4967522;28;20299;-81
2023/03/13 07:43:28;;;;;;;8.07;4.93;;;;;;;;;;4968344;28;20230;-80
2023/03/13 07:45:53;;;;;;;7.63;4.10;;;;;;;;;;4970773;28;20307;-82
2023/03/13 07:48:19;;;;;;;6.83;4.10;;;;;;;;;;4974291;28;20264;-81
2023/03/13 07:50:45;;;;;;;7.57;5.00;;;;;;;;;;4951291;28;20236;-85
2023/03/13 07:53:12;;;;;;;5.67;5.07;;;;;;;;;;4971096;28;20246;-83
2023/03/13 07:55:41;;;;;;;6.40;4.43;;;;;;;;;;4954680;28;20244;-85
2023/03/13 07:58:07;;;;;;;7.60;5.40;;;;;;;;;;4935374;28;20780;-83
2023/03/13 08:00:32;;;;;;;8.17;5.33;;;;;;;;;;4953704;28;20230;-81
2023/03/13 08:02:58;;;;;;;6.83;5.43;;;;;;;;;;4971090;28;20226;-79
2023/03/13 08:05:23;;;;;;;6.47;5.87;;;;;;;;;;4955551;28;20635;-82
2023/03/13 08:07:53;;;;;;;7.07;6.03;;;;;;;;;;4988098;28;20238;-79
2023/03/13 08:10:19;;;;;;;6.43;5.80;;;;;;;;;;4968627;28;20214;-82
2023/03/13 08:12:44;;;;;;;7.40;6.23;;;;;;;;;;4982025;28;20233;-81
2023/03/13 08:15:10;;;;;;;6.87;6.20;;;;;;;;;;4951788;28;20233;-84
2023/03/13 08:17:35;;;;;;;7.50;6.03;;;;;;;;;;4963970;28;20678;-80
2023/03/13 08:20:01;;;;;;;6.57;5.97;;;;;;;;;;4979179;28;20226;-81
2023/03/13 08:22:26;;;;;;;6.30;5.80;;;;;;;;;;4962496;28;20272;-80
2023/03/13 08:24:52;;;;;;;7.27;6.67;;;;;;;;;;4981744;28;20214;-79
2023/03/13 08:27:17;;;;;;;6.17;5.67;;;;;;;;;;4966250;28;20218;-80
2023/03/13 08:29:43;;;;;;;7.20;6.27;;;;;;;;;;4953272;28;20226;-81
2023/03/13 08:32:09;;;;;;;9.47;6.83;;;;;;;;;;4980447;28;20686;-79
2023/03/13 08:34:35;;;;;;;8.27;5.70;;;;;;;;;;4953511;28;20253;-80
2023/03/13 08:37:01;;;;;;;7.73;6.47;;;;;;;;;;4969090;28;20222;-81
2023/03/13 08:39:26;;;;;;;6.47;5.93;;;;;;;;;;4958339;28;20240;-79
2023/03/13 08:41:52;;;;;;;7.17;6.27;;;;;;;;;;4966188;28;20218;-81
2023/03/13 08:44:20;;;;;;;6.97;6.37;;;;;;;;;;4971586;28;20325;-81
2023/03/13 08:46:47;;;;;;;7.07;6.47;;;;;;;;;;4971142;28;20249;-79
2023/03/13 08:49:16;;;;;;;6.90;6.30;;;;;;;;;;4972075;28;20223;-80
2023/03/13 08:51:41;;;;;;;6.93;6.33;;;;;;;;;;4937118;28;20230;-79
2023/03/13 08:54:12;;;;;;;6.90;6.23;;;;;;;;;;4961884;28;20229;-81
2023/03/13 08:56:37;;;;;;;6.63;5.97;;;;;;;;;;4953787;28;20229;-79
2023/03/13 08:59:05;;;;;;;6.77;6.27;;;;;;;;;;4972509;28;20222;-80
2023/03/13 09:01:32;;;;;;;6.90;6.27;;;;;;;;;;4956358;28;20237;-81
2023/03/13 09:04:03;;;;;;;6.60;6.00;;;;;;;;;;4935076;28;20222;-82
2023/03/13 09:06:29;;;;;;;7.40;6.70;;;;;;;;;;4953649;28;20230;-80
2023/03/13 09:09:00;;;;;;;8.43;6.67;;;;;;;;;;4953990;28;20224;-81
2023/03/13 09:11:26;;;;;;;6.17;5.47;;;;;;;;;;4969303;28;20231;-81
2023/03/13 09:13:51;;;;;;;6.37;5.70;;;;;;;;;;4969672;28;20233;-82
2023/03/13 09:16:23;;;;;;;6.73;6.13;;;;;;;;;;4965850;28;20226;-79
2023/03/13 09:18:52;;;;;;;6.97;6.27;;;;;;;;;;4958421;28;20245;-82
2023/03/13 09:21:21;;;;;;;7.67;6.10;;;;;;;;;;4938056;28;20234;-81
2023/03/13 09:23:47;;;;;;;5.73;5.13;;;;;;;;;;4979066;28;20278;-80
2023/03/13 09:26:13;;;;;;;5.83;5.30;;;;;;;;;;4951737;28;20262;-81
2023/03/13 09:28:41;;;;;;;5.43;4.80;;;;;;;;;;4968840;28;20215;-80
2023/03/13 09:31:14;;;;;;;6.70;5.93;;;;;;;;;;4965113;28;20285;-81
2023/03/13 09:33:40;;;;;;;6.17;5.33;;;;;;;;;;4966326;28;20234;-80
2023/03/13 09:36:06;;;;;;;5.97;5.20;;;;;;;;;;4983730;28;20230;-82
2023/03/13 09:38:36;;;;;;;6.77;5.40;;;;;;;;;;4965242;28;20230;-81
2023/03/13 09:41:16;;;;;;;6.60;6.00;;;;;;;;;;4979143;28;20762;-82
2023/03/13 09:43:57;;;;;;;6.37;5.80;;;;;;;;;;4951200;28;20305;-81
2023/03/13 09:46:48;;;;;;;6.67;5.70;;;;;;;;;;4965518;28;20231;-80
2023/03/13 09:49:46;;;;;;;6.27;5.70;;;;;;;;;;4967370;28;20798;-83
2023/03/13 09:52:27;;;;;;;6.20;5.43;;;;;;;;;;4971134;28;20310;-79
2023/03/13 09:55:20;;;;;;;6.17;5.67;;;;;;;;;;4965688;28;20226;-81
2023/03/13 09:57:54;;;;;;;6.13;5.63;;;;;;;;;;4982762;28;20224;-81
2023/03/13 10:00:30;;;;;;;5.57;5.07;;;;;;;;;;4950834;28;20234;-79
2023/03/13 10:02:59;;;;;;;6.87;6.40;;;;;;;;;;4954380;28;20225;-80
2023/03/13 10:05:26;;;;;;;6.77;6.17;;;;;;;;;;4968173;28;20687;-80
2023/03/13 10:07:57;;;;;;;6.47;6.07;;;;;;;;;;4970761;28;20220;-80
2023/03/13 10:10:40;;;;;;;6.13;5.53;;;;;;;;;;4946405;28;20249;-80
2023/03/13 10:13:15;;;;;;;6.67;6.10;;;;;;;;;;4962634;28;20226;-80
2023/03/13 10:15:48;;;;;;;5.93;5.43;;;;;;;;;;4955012;28;20230;-82
2023/03/13 10:18:21;;;;;;;6.17;5.57;;;;;;;;;;4968057;28;20230;-82
2023/03/13 10:20:49;;;;;;;7.13;5.67;;;;;;;;;;4967981;28;20252;-82
2023/03/13 10:23:38;;;;;;;6.13;5.63;;;;;;;;;;4914953;28;20317;-80
2023/03/13 10:26:04;;;;;;;6.17;5.23;;;;;;;;;;4941969;28;20630;-81
2023/03/13 10:28:29;;;;;;;7.33;5.30;;;;;;;;;;4983979;28;20234;-82
2023/03/13 10:31:08;;;;;;;5.80;4.67;;;;;;;;;;4950933;28;20221;-80
2023/03/13 10:33:36;;;;;;;4.83;4.43;;;;;;;;;;4935197;28;20333;-80
2023/03/13 10:36:09;;;;;;;5.93;4.67;;;;;;;;;;4955005;28;20668;-79
2023/03/13 10:38:45;;;;;;;5.77;4.80;;;;;;;;;;4941369;28;20309;-81
2023/03/13 10:41:19;;;;;;;4.47;4.17;;;;;;;;;;4951767;28;20222;-83
2023/03/13 10:43:50;;;;;;;4.83;4.37;;;;;;;;;;4968231;28;20979;-82
2023/03/13 10:46:24;;;;;;;37.60;23.93;;;;;;;;;;4965233;28;20270;-81
2023/03/13 10:48:49;;;;;;;5.53;5.10;;;;;;;;;;4918278;28;20225;-80
2023/03/13 10:51:22;;;;;;;4.37;3.90;;;;;;;;;;4948411;28;20239;-82
2023/03/13 10:53:47;;;;;;;5.00;4.20;;;;;;;;;;4979783;28;20222;-81
2023/03/13 10:56:16;;;;;;;5.07;3.97;;;;;;;;;;4964385;28;20224;-79
2023/03/13 10:58:46;;;;;;;4.93;3.30;;;;;;;;;;4970750;28;20840;-79
2023/03/13 11:01:23;;;;;;;3.93;2.90;;;;;;;;;;4949152;28;20286;-80
2023/03/13 11:03:49;;;;;;;2.97;2.67;;;;;;;;;;4963489;28;20226;-82
2023/03/13 11:06:31;;;;;;;4.43;2.60;;;;;;;;;;4949322;28;20493;-81
2023/03/13 11:09:25;;;;;;;3.47;2.67;;;;;;;;;;4948032;28;20225;-81
2023/03/13 11:12:05;;;;;;;2.93;2.47;;;;;;;;;;4950053;28;20230;-81
2023/03/13 11:14:34;;;;;;;3.37;2.60;;;;;;;;;;4954890;28;20698;-80
2023/03/13 11:17:27;;;;;;;4.83;2.50;;;;;;;;;;4947302;28;20528;-80
2023/03/13 11:20:04;;;;;;;4.43;3.13;;;;;;;;;;4971919;28;20254;-83
2023/03/13 11:22:54;;;;;;;3.63;2.90;;;;;;;;;;4965468;28;20308;-81
2023/03/13 11:25:26;;;;;;;3.33;2.80;;;;;;;;;;4979754;28;20699;-81
2023/03/13 11:28:23;;;;;;;4.37;2.50;;;;;;;;;;4964046;28;21068;-81
2023/03/13 11:31:18;;;;;;;2.60;2.27;;;;;;;;;;4965977;28;20708;-79
2023/03/13 11:34:06;;;;;;;4.97;4.33;;;;;;;;;;4948550;28;20227;-80
2023/03/13 11:36:39;;;;;;;2.60;2.40;;;;;;;;;;4968493;28;20218;-83
2023/03/13 11:39:32;;;;;;;3.40;1.83;;;;;;;;;;4963008;28;20286;-82
2023/03/13 11:42:09;;;;;;;2.23;1.97;;;;;;;;;;4961694;28;20260;-81
2023/03/13 11:44:47;;;;;;;2.97;2.10;;;;;;;;;;4940243;28;20695;-81
2023/03/13 11:47:27;;;;;;;4.03;2.20;;;;;;;;;;4976618;28;20218;-80
2023/03/13 11:50:13;;;;;;;4.87;3.00;;;;;;;;;;4981154;28;20224;-81
2023/03/13 11:52:50;;;;;;;6.70;4.40;;;;;;;;;;4981146;28;20231;-81
2023/03/13 11:55:27;;;;;;;6.55;5.03;;;;;;;;;;4983137;28;20947;-81
2023/03/13 11:58:14;;;;;;;2.25;2.00;;;;;;;;;;4962988;28;20697;-79
2023/03/13 12:01:00;;;;;;;1.73;1.30;;;;;;;;;;4962750;28;20286;-82
2023/03/13 12:03:41;;;;;;;2.13;1.60;;;;;;;;;;4946013;28;20307;-81
2023/03/13 12:06:14;;;;;;;2.70;1.88;;;;;;;;;;4966742;28;20232;-82
2023/03/13 12:08:44;;;;;;;2.72;1.50;;;;;;;;;;4934040;28;20222;-81
2023/03/13 12:11:30;;;;;;;3.22;1.45;;;;;;;;;;4984442;28;20289;-81
2023/03/13 12:14:03;;;;;;;2.57;1.50;;;;;;;;;;4957062;28;20281;-81
2023/03/13 12:16:35;;;;;;;1.63;1.40;;;;;;;;;;4956522;28;20210;-79
2023/03/13 12:19:03;;;;;;;1.55;1.13;;;;;;;;;;4986736;28;20254;-81
2023/03/13 12:21:55;;;;;;;3.22;1.40;;;;;;;;;;4966704;28;20234;-81
2023/03/13 12:24:31;;;;;;;1.55;1.02;;;;;;;;;;4963852;28;20258;-80
2023/03/13 12:27:02;;;;;;;1.40;1.00;;;;;;;;;;4969922;28;20211;-81
2023/03/13 12:29:52;;;;;;;2.22;1.23;;;;;;;;;;4969621;28;20222;-80
2023/03/13 12:32:28;;;;;;;2.03;1.02;;;;;;;;;;4964194;28;20230;-81
2023/03/13 12:35:00;;;;;;;3.85;1.23;;;;;;;;;;4950094;28;20221;-83
2023/03/13 12:37:42;;;;;;;1.30;1.20;;;;;;;;;;4948578;28;20231;-81
2023/03/13 12:40:28;;;;;;;3.40;1.25;;;;;;;;;;4949691;28;20269;-80
2023/03/13 12:43:01;;;;;;;2.80;1.25;;;;;;;;;;4952143;28;20246;-80
2023/03/13 12:45:28;;;;;;;2.10;1.88;;;;;;;;;;4968295;28;20222;-79
2023/03/13 12:47:59;;;;;;;3.78;1.30;;;;;;;;;;4970400;28;20229;-83
2023/03/13 12:50:59;;;;;;;3.92;1.90;;;;;;;;;;4985969;28;20227;-79
2023/03/13 12:53:43;;;;;;;2.95;1.50;;;;;;;;;;4970132;28;20739;-79
2023/03/13 12:56:14;;;;;;;2.72;1.20;;;;;;;;;;4973863;28;20230;-82
2023/03/13 12:58:55;;;;;;;1.63;1.30;;;;;;;;;;4965030;28;20227;-82
2023/03/13 13:01:28;;;;;;;1.30;1.20;;;;;;;;;;4970427;28;20699;-80
2023/03/13 13:03:57;;;;;;;3.42;1.33;;;;;;;;;;4951424;28;20584;-80
2023/03/13 13:06:23;;;;;;;2.38;1.27;;;;;;;;;;4965900;28;20309;-81
2023/03/13 13:08:51;;;;;;;2.30;1.20;;;;;;;;;;4926597;28;20286;-79
2023/03/13 13:11:32;;;;;;;2.80;1.17;;;;;;;;;;4976706;28;20299;-80
2023/03/13 13:14:00;;;;;;;1.45;1.05;;;;;;;;;;4991683;28;20232;-77
2023/03/13 13:16:25;;;;;;;4.60;1.48;;;;;;;;;;4974301;28;20308;-80
2023/03/13 13:18:53;;;;;;;5.93;1.80;;;;;;;;;;4978399;28;20238;-80
2023/03/13 13:21:22;;;;;;;3.00;1.65;;;;;;;;;;4982699;28;20231;-81
2023/03/13 13:23:52;;;;;;;1.20;1.08;;;;;;;;;;4973235;28;20225;-81
2023/03/13 13:26:32;;;;;;;2.80;1.52;;;;;;;;;;4923042;28;20257;-82
2023/03/13 13:29:03;;;;;;;3.65;1.35;;;;;;;;;;4965815;28;20234;-81
2023/03/13 13:31:49;;;;;;;1.80;1.00;;;;;;;;;;4962343;28;20238;-79
2023/03/13 13:34:27;;;;;;;2.70;1.40;;;;;;;;;;4982885;28;20233;-79
2023/03/13 13:36:53;;;;;;;1.80;1.30;;;;;;;;;;4986413;28;20238;-81
2023/03/13 13:39:54;;;;;;;2.35;1.30;;;;;;;;;;4954637;28;20258;-80
2023/03/13 13:42:28;;;;;;;9.05;7.25;;;;;;;;;;4962196;28;20262;-81
2023/03/13 13:45:00;;;;;;;5.10;2.20;;;;;;;;;;4964825;28;20336;-81
2023/03/13 13:47:29;;;;;;;4.07;1.88;;;;;;;;;;4954103;28;20262;-81
2023/03/13 13:49:59;;;;;;;1.95;1.17;;;;;;;;;;4924155;28;20226;-78
2023/03/13 13:52:37;;;;;;;1.73;1.13;;;;;;;;;;4968831;28;20252;-80
2023/03/13 13:55:25;;;;;;;3.17;1.17;;;;;;;;;;4969246;28;20210;-79
2023/03/13 13:58:11;;;;;;;1.27;1.10;;;;;;;;;;4954174;28;20242;-80
2023/03/13 14:00:42;;;;;;;3.72;1.02;;;;;;;;;;4950540;28;20222;-78
2023/03/13 14:03:21;;;;;;;2.70;1.13;;;;;;;;;;4963543;28;20241;-81
2023/03/13 14:05:48;;;;;;;1.17;1.08;;;;;;;;;;4969489;28;20226;-78
2023/03/13 14:08:40;;;;;;;1.58;1.10;;;;;;;;;;4968076;28;20226;-79
2023/03/13 14:11:24;;;;;;;1.98;1.10;;;;;;;;;;4970339;28;20366;-81
2023/03/13 14:14:22;;;;;;;1.58;1.10;;;;;;;;;;4989404;28;20286;-82
2023/03/13 14:16:51;;;;;;;0.95;0.93;;;;;;;;;;4971819;28;20234;-78
2023/03/13 14:19:27;;;;;;;1.02;1.00;;;;;;;;;;4966133;28;20237;-79
2023/03/13 14:21:59;;;;;;;1.50;1.00;;;;;;;;;;4939519;28;20237;-80
2023/03/13 14:24:24;;;;;;;1.40;1.17;;;;;;;;;;4967655;28;20306;-77
2023/03/13 14:26:52;;;;;;;1.85;1.20;;;;;;;;;;4968481;28;20746;-78
2023/03/13 14:29:24;;;;;;;1.35;1.20;;;;;;;;;;4950102;28;20229;-80
2023/03/13 14:31:59;;;;;;;2.40;1.50;;;;;;;;;;4954144;28;20302;-79
2023/03/13 14:34:26;;;;;;;1.30;1.20;;;;;;;;;;4971192;28;20221;-78
2023/03/13 14:36:58;;;;;;;1.70;1.17;;;;;;;;;;4950773;28;20286;-78
2023/03/13 14:39:29;;;;;;;1.80;1.38;;;;;;;;;;4969619;28;20659;-79
2023/03/13 14:41:55;;;;;;;2.10;1.20;;;;;;;;;;4970122;28;20239;-79
2023/03/13 14:44:23;;;;;;;3.08;1.40;;;;;;;;;;4971954;28;20222;-78
2023/03/13 14:46:53;;;;;;;2.67;1.23;;;;;;;;;;4949405;28;20258;-78
2023/03/13 14:49:24;;;;;;;1.25;1.13;;;;;;;;;;4950263;28;20287;-78
2023/03/13 14:52:17;;;;;;;1.90;1.20;;;;;;;;;;4937515;28;20222;-79
2023/03/13 14:55:00;;;;;;;1.75;1.50;;;;;;;;;;4968214;28;20241;-79
2023/03/13 14:57:26;;;;;;;1.83;1.30;;;;;;;;;;4980782;28;20251;-79
2023/03/13 14:59:53;;;;;;;2.63;1.58;;;;;;;;;;4963059;28;21176;-78
2023/03/13 15:02:26;;;;;;;1.35;1.00;;;;;;;;;;4941241;28;20222;-77
2023/03/13 15:04:59;;;;;;;3.20;1.33;;;;;;;;;;4963359;28;20218;-79
2023/03/13 15:07:42;;;;;;;3.38;1.55;;;;;;;;;;4986379;28;20218;-80
2023/03/13 15:10:39;;;;;;;3.75;1.40;;;;;;;;;;4981725;28;20236;-78